Time;durP1;ratioP1;P1;durP2;ratioP2;P2;SDS_P1;SDS_P2;PMS_P1;PMS_P2;Temp;Humidity;BMP_temperature;BMP_pressure;BME280_temperature;BME280_humidity;BME280_pressure;Samples;Min_cycle;Max_cycle;Signal;HPM_P1;HPM_P2
2023/10/26 00:01:16;;;;;;;6.15;2.80;;;24.80;99.90;;;;;;5066403;22;20460;-46
2023/10/26 00:03:42;;;;;;;6.13;2.90;;;24.80;99.90;;;;;;5045842;28;20057;-46
2023/10/26 00:06:08;;;;;;;4.43;2.75;;;24.70;99.90;;;;;;5034357;28;20083;-46
2023/10/26 00:08:33;;;;;;;4.82;2.97;;;24.80;99.90;;;;;;5051124;28;20033;-46
2023/10/26 00:11:03;;;;;;;6.80;3.42;;;24.80;99.90;;;;;;5053343;28;20044;-46
2023/10/26 00:13:29;;;;;;;5.35;2.80;;;24.70;99.90;;;;;;5053712;28;20350;-46
2023/10/26 00:15:55;;;;;;;4.95;3.03;;;24.70;99.90;;;;;;5053341;28;20040;-46
2023/10/26 00:18:21;;;;;;;6.32;3.00;;;24.80;99.90;;;;;;5051877;28;20025;-46
2023/10/26 00:20:48;;;;;;;6.38;3.42;;;24.70;99.90;;;;;;5053290;28;20023;-46
2023/10/26 00:23:14;;;;;;;5.07;2.85;;;24.70;99.90;;;;;;5052996;28;20021;-46
2023/10/26 00:25:40;;;;;;;4.97;3.30;;;24.70;99.90;;;;;;5053360;28;20021;-46
2023/10/26 00:28:06;;;;;;;5.47;2.70;;;24.70;99.90;;;;;;5051777;28;20051;-47
2023/10/26 00:30:32;;;;;;;5.03;3.17;;;24.70;99.90;;;;;;5053162;28;20440;-46
2023/10/26 00:32:58;;;;;;;4.95;3.28;;;24.70;99.90;;;;;;5051951;28;20064;-46
2023/10/26 00:35:24;;;;;;;5.00;3.03;;;24.70;99.90;;;;;;5050680;28;20047;-47
2023/10/26 00:37:50;;;;;;;4.40;2.90;;;24.70;99.90;;;;;;5052116;28;20021;-47
2023/10/26 00:40:16;;;;;;;6.53;3.17;;;24.70;99.90;;;;;;5053332;28;20028;-46
2023/10/26 00:42:42;;;;;;;5.95;2.97;;;24.70;99.90;;;;;;5053135;28;20028;-46
2023/10/26 00:45:08;;;;;;;6.90;3.63;;;24.70;99.90;;;;;;5053181;28;20435;-46
2023/10/26 00:47:34;;;;;;;4.35;2.58;;;24.70;99.90;;;;;;5052122;28;20082;-46
2023/10/26 00:50:01;;;;;;;6.80;3.13;;;24.70;99.90;;;;;;5053066;28;20029;-46
2023/10/26 00:52:27;;;;;;;5.35;2.97;;;24.70;99.90;;;;;;5053105;28;20093;-46
2023/10/26 00:54:53;;;;;;;7.47;3.67;;;24.70;99.90;;;;;;5052939;28;20036;-47
2023/10/26 00:57:23;;;;;;;6.07;3.83;;;24.60;99.90;;;;;;5053201;28;20032;-46
2023/10/26 00:59:50;;;;;;;5.00;3.00;;;24.60;99.90;;;;;;5052936;28;20094;-46
2023/10/26 01:02:18;;;;;;;6.97;3.58;;;24.60;99.90;;;;;;5064631;22;20075;-49
2023/10/26 01:04:44;;;;;;;7.88;4.03;;;24.60;99.90;;;;;;5052660;28;20048;-49
2023/10/26 01:07:10;;;;;;;7.10;3.65;;;24.60;99.90;;;;;;5052763;28;20029;-50
2023/10/26 01:09:36;;;;;;;5.82;3.58;;;24.60;99.90;;;;;;5052693;28;20534;-49
2023/10/26 01:12:02;;;;;;;4.70;3.22;;;24.60;99.90;;;;;;5052570;28;20021;-50
2023/10/26 01:14:28;;;;;;;6.63;3.90;;;24.60;99.90;;;;;;5034541;28;20481;-50
2023/10/26 01:16:57;;;;;;;6.20;3.90;;;24.60;99.90;;;;;;5052626;28;20116;-50
2023/10/26 01:19:39;;;;;;;7.20;3.97;;;24.60;99.90;;;;;;5052535;28;20488;-50
2023/10/26 01:22:05;;;;;;;7.20;3.78;;;24.60;99.90;;;;;;5052472;28;20029;-50
2023/10/26 01:24:31;;;;;;;6.60;3.78;;;24.60;99.90;;;;;;5052482;28;20021;-50
2023/10/26 01:26:57;;;;;;;6.63;3.67;;;24.60;99.90;;;;;;5052486;28;20029;-50
2023/10/26 01:29:23;;;;;;;6.15;3.65;;;24.60;99.90;;;;;;5052577;28;20082;-50
2023/10/26 01:31:49;;;;;;;6.88;4.05;;;24.60;99.90;;;;;;5052332;28;20056;-50
2023/10/26 01:34:15;;;;;;;6.80;3.85;;;24.60;99.90;;;;;;5052208;28;20064;-50
2023/10/26 01:36:40;;;;;;;5.57;4.10;;;24.60;99.90;;;;;;5052195;28;20053;-50
2023/10/26 01:39:06;;;;;;;6.22;4.25;;;24.60;99.90;;;;;;5052154;28;20071;-50
2023/10/26 01:41:33;;;;;;;7.80;4.35;;;24.50;99.90;;;;;;5052052;28;20159;-50
2023/10/26 01:44:00;;;;;;;7.13;4.25;;;24.50;99.90;;;;;;5034400;28;20036;-50
2023/10/26 01:46:26;;;;;;;5.60;3.50;;;24.50;99.90;;;;;;5052102;28;20055;-50
2023/10/26 01:48:52;;;;;;;7.97;3.92;;;24.50;99.90;;;;;;5052174;28;20056;-50
2023/10/26 01:51:18;;;;;;;6.20;3.65;;;24.50;99.90;;;;;;5052036;28;20386;-50
2023/10/26 01:53:44;;;;;;;5.25;3.65;;;24.50;99.90;;;;;;5051941;28;20025;-50
2023/10/26 01:56:09;;;;;;;7.47;4.25;;;24.50;99.90;;;;;;5052034;28;20104;-50
2023/10/26 01:58:35;;;;;;;9.30;4.72;;;24.50;99.90;;;;;;5052119;28;20117;-50
2023/10/26 02:01:01;;;;;;;6.45;4.10;;;24.50;99.90;;;;;;5052358;28;20382;-50
2023/10/26 02:03:27;;;;;;;9.27;4.63;;;24.50;99.90;;;;;;5052116;28;20036;-50
2023/10/26 02:05:53;;;;;;;8.43;4.90;;;24.50;99.90;;;;;;5052284;28;20025;-50
2023/10/26 02:08:19;;;;;;;7.18;4.57;;;24.50;99.90;;;;;;5051984;28;20023;-50
2023/10/26 02:10:44;;;;;;;9.43;4.38;;;24.50;99.90;;;;;;5051867;28;20383;-50
2023/10/26 02:13:10;;;;;;;6.75;4.43;;;24.50;99.90;;;;;;5051998;28;20017;-50
2023/10/26 02:15:36;;;;;;;6.95;4.75;;;24.50;99.90;;;;;;5051771;28;20037;-51
2023/10/26 02:18:02;;;;;;;6.18;3.60;;;24.50;99.90;;;;;;5051922;28;20385;-50
2023/10/26 02:20:28;;;;;;;7.07;4.22;;;24.50;99.90;;;;;;5034166;28;20021;-50
2023/10/26 02:22:54;;;;;;;6.30;4.10;;;24.50;99.90;;;;;;5052112;28;20043;-51
2023/10/26 02:25:20;;;;;;;6.65;4.20;;;24.50;99.90;;;;;;5051654;28;20036;-51
2023/10/26 02:27:46;;;;;;;6.13;4.25;;;24.50;99.90;;;;;;5051958;28;20048;-50
2023/10/26 02:30:12;;;;;;;8.18;4.57;;;24.40;99.90;;;;;;5051664;28;20120;-51
2023/10/26 02:32:40;;;;;;;7.03;4.55;;;24.50;99.90;;;;;;5051827;28;20025;-50
2023/10/26 02:35:07;;;;;;;9.23;4.97;;;24.40;99.90;;;;;;5051699;28;20557;-50
2023/10/26 02:37:38;;;;;;;6.35;4.25;;;24.40;99.90;;;;;;5051753;28;20369;-50
2023/10/26 02:40:10;;;;;;;9.30;4.95;;;24.40;99.90;;;;;;5051807;28;20451;-50
2023/10/26 02:42:38;;;;;;;6.68;4.30;;;24.40;99.90;;;;;;5033685;28;20021;-50
2023/10/26 02:45:08;;;;;;;6.15;4.07;;;24.40;99.90;;;;;;5051569;28;20036;-50
2023/10/26 02:47:34;;;;;;;6.80;4.32;;;24.40;99.90;;;;;;5051626;28;20096;-50
2023/10/26 02:50:00;;;;;;;8.45;4.70;;;24.40;99.90;;;;;;5051578;28;20174;-50
2023/10/26 02:52:26;;;;;;;6.55;4.00;;;24.40;99.90;;;;;;5051719;28;20525;-50
2023/10/26 02:54:51;;;;;;;7.80;4.43;;;24.40;99.90;;;;;;5051348;28;20029;-50
2023/10/26 02:57:17;;;;;;;8.18;4.00;;;24.30;99.90;;;;;;5052406;28;20037;-50
2023/10/26 02:59:43;;;;;;;7.05;4.90;;;24.30;99.90;;;;;;5055077;28;20024;-50
2023/10/26 03:02:09;;;;;;;6.88;4.50;;;24.30;99.90;;;;;;5066941;22;20517;-52
2023/10/26 03:04:34;;;;;;;6.90;4.28;;;24.30;99.90;;;;;;5053470;28;20465;-52
2023/10/26 03:07:01;;;;;;;6.93;4.75;;;24.30;99.90;;;;;;5053736;28;20473;-53
2023/10/26 03:09:29;;;;;;;7.18;4.93;;;24.30;99.90;;;;;;5054990;28;20045;-53
2023/10/26 03:11:55;;;;;;;5.65;4.20;;;24.30;99.90;;;;;;5053594;28;20033;-52
2023/10/26 03:14:21;;;;;;;7.93;4.63;;;24.30;99.90;;;;;;5054795;28;20067;-52
2023/10/26 03:16:47;;;;;;;6.60;3.83;;;24.30;99.90;;;;;;5054642;28;20037;-52
2023/10/26 03:19:13;;;;;;;8.10;4.53;;;24.30;99.90;;;;;;5054525;28;20075;-53
2023/10/26 03:21:39;;;;;;;7.95;4.60;;;24.30;99.90;;;;;;5054474;28;20025;-52
2023/10/26 03:24:05;;;;;;;8.57;4.20;;;24.30;99.90;;;;;;5054583;28;20078;-53
2023/10/26 03:26:31;;;;;;;6.55;4.13;;;24.30;99.90;;;;;;5054699;28;20040;-53
2023/10/26 03:28:57;;;;;;;6.20;4.25;;;24.30;99.90;;;;;;5054674;28;20021;-52
2023/10/26 03:31:22;;;;;;;7.22;4.03;;;24.30;99.90;;;;;;5054479;28;20067;-52
2023/10/26 03:33:49;;;;;;;7.03;4.53;;;24.20;99.90;;;;;;5054358;28;20489;-52
2023/10/26 03:36:16;;;;;;;8.80;4.75;;;24.30;99.90;;;;;;5054314;28;20499;-52
2023/10/26 03:38:42;;;;;;;5.78;4.35;;;24.20;99.90;;;;;;5054391;28;20025;-52
2023/10/26 03:41:09;;;;;;;7.82;4.20;;;24.20;99.90;;;;;;5054259;28;20033;-53
2023/10/26 03:43:34;;;;;;;7.15;3.95;;;24.20;99.90;;;;;;5054491;28;20514;-53
2023/10/26 03:46:00;;;;;;;6.95;3.88;;;24.30;99.90;;;;;;5054397;28;20156;-52
2023/10/26 03:48:26;;;;;;;7.03;4.20;;;24.20;99.90;;;;;;5054201;28;20473;-53
2023/10/26 03:50:52;;;;;;;9.45;4.43;;;24.20;99.90;;;;;;5053896;28;20033;-52
2023/10/26 03:53:18;;;;;;;7.20;4.15;;;24.20;99.90;;;;;;5052778;28;20021;-52
2023/10/26 03:55:43;;;;;;;6.43;4.10;;;24.20;99.90;;;;;;5053886;28;20044;-52
2023/10/26 03:58:12;;;;;;;7.50;4.15;;;24.20;99.90;;;;;;5053981;28;20028;-56
2023/10/26 04:00:38;;;;;;;8.18;4.30;;;24.20;99.90;;;;;;5053754;28;20017;-52
2023/10/26 04:03:03;;;;;;;6.18;3.80;;;24.20;99.90;;;;;;5053768;28;20064;-52
2023/10/26 04:05:29;;;;;;;5.38;3.53;;;24.20;99.90;;;;;;5054408;28;20079;-52
2023/10/26 04:07:56;;;;;;;5.85;3.90;;;24.20;99.90;;;;;;5053496;28;20025;-51
2023/10/26 04:10:22;;;;;;;5.93;3.90;;;24.20;99.90;;;;;;5052864;28;20472;-52
2023/10/26 04:12:48;;;;;;;6.88;3.88;;;24.10;99.90;;;;;;5053610;28;20051;-52
2023/10/26 04:15:14;;;;;;;5.95;3.80;;;24.10;99.90;;;;;;5053614;28;20029;-51
2023/10/26 04:17:40;;;;;;;5.97;3.53;;;24.10;99.90;;;;;;5053616;28;20079;-53
2023/10/26 04:20:07;;;;;;;7.05;3.92;;;24.10;99.90;;;;;;5053495;28;20037;-52
2023/10/26 04:22:33;;;;;;;5.65;3.97;;;24.10;99.90;;;;;;5053644;28;20028;-52
2023/10/26 04:24:59;;;;;;;6.38;4.03;;;24.10;99.90;;;;;;5053597;28;20029;-52
2023/10/26 04:27:25;;;;;;;7.30;4.00;;;24.10;99.90;;;;;;5053278;28;20021;-52
2023/10/26 04:29:51;;;;;;;5.45;3.30;;;24.10;99.90;;;;;;5053435;28;20331;-52
2023/10/26 04:32:17;;;;;;;6.10;3.70;;;24.10;99.90;;;;;;5053245;28;20036;-52
2023/10/26 04:34:46;;;;;;;8.00;3.92;;;24.10;99.90;;;;;;5053201;28;20033;-52
2023/10/26 04:37:12;;;;;;;6.28;4.10;;;24.10;99.90;;;;;;5053330;28;20385;-53
2023/10/26 04:39:41;;;;;;;5.90;4.03;;;24.10;99.90;;;;;;5053142;28;20021;-52
2023/10/26 04:42:07;;;;;;;7.60;4.07;;;24.10;99.90;;;;;;5053017;28;20474;-52
2023/10/26 04:44:33;;;;;;;6.00;3.65;;;24.10;99.90;;;;;;5053277;28;20033;-53
2023/10/26 04:46:59;;;;;;;9.02;4.15;;;24.10;99.90;;;;;;5052942;28;20021;-53
2023/10/26 04:49:24;;;;;;;9.40;4.75;;;24.10;99.90;;;;;;5052953;28;20021;-53
2023/10/26 04:51:50;;;;;;;11.57;4.18;;;24.10;99.90;;;;;;5052917;28;20120;-53
2023/10/26 04:54:16;;;;;;;8.05;3.95;;;24.10;99.90;;;;;;5052902;28;20025;-52
2023/10/26 04:56:42;;;;;;;9.05;3.50;;;24.10;99.90;;;;;;5052782;28;20041;-53
2023/10/26 04:59:08;;;;;;;6.88;3.83;;;24.10;99.90;;;;;;5051558;28;20136;-52
2023/10/26 05:01:34;;;;;;;9.13;3.97;;;24.10;99.90;;;;;;5050834;28;20136;-53
2023/10/26 05:04:00;;;;;;;5.90;3.25;;;24.10;99.90;;;;;;5051361;28;20029;-52
2023/10/26 05:06:25;;;;;;;7.57;3.70;;;24.10;99.90;;;;;;5052863;28;20039;-52
2023/10/26 05:08:51;;;;;;;6.65;3.45;;;24.10;99.90;;;;;;5052658;28;20032;-52
2023/10/26 05:11:18;;;;;;;7.68;4.30;;;24.10;99.90;;;;;;5051566;28;20528;-52
2023/10/26 05:13:44;;;;;;;6.38;3.25;;;24.10;99.90;;;;;;5052601;28;20112;-52
2023/10/26 05:16:10;;;;;;;7.35;3.40;;;24.10;99.90;;;;;;5052299;28;20123;-53
2023/10/26 05:18:37;;;;;;;11.20;3.70;;;24.10;99.90;;;;;;5051252;28;20048;-52
2023/10/26 05:21:03;;;;;;;10.88;4.07;;;24.10;99.90;;;;;;5052154;28;20059;-52
2023/10/26 05:23:29;;;;;;;8.25;3.78;;;24.10;99.90;;;;;;5052335;28;20029;-52
2023/10/26 05:25:54;;;;;;;7.63;4.25;;;24.10;99.90;;;;;;5052362;28;20021;-52
2023/10/26 05:28:20;;;;;;;10.48;4.22;;;24.10;99.90;;;;;;5052366;28;20040;-52
2023/10/26 05:30:46;;;;;;;7.10;3.83;;;24.10;99.90;;;;;;5051161;28;20406;-52
2023/10/26 05:33:12;;;;;;;8.55;4.00;;;24.10;99.90;;;;;;5052358;28;20048;-55
2023/10/26 05:35:37;;;;;;;9.13;4.25;;;24.10;99.90;;;;;;5052305;28;20028;-52
2023/10/26 05:38:08;;;;;;;9.15;4.03;;;24.10;99.90;;;;;;5052567;28;20021;-52
2023/10/26 05:40:34;;;;;;;5.50;3.40;;;24.00;99.90;;;;;;5052587;28;20355;-52
2023/10/26 05:43:00;;;;;;;6.88;3.83;;;24.00;99.90;;;;;;5052044;28;20021;-53
2023/10/26 05:45:26;;;;;;;8.70;4.35;;;24.00;99.90;;;;;;5052001;28;20472;-53
2023/10/26 05:47:52;;;;;;;7.20;3.63;;;24.00;99.90;;;;;;5052133;28;20053;-53
2023/10/26 05:50:19;;;;;;;9.07;4.53;;;24.10;99.90;;;;;;5052146;28;20033;-53
2023/10/26 05:52:45;;;;;;;8.20;3.83;;;24.00;99.90;;;;;;5052161;28;20029;-53
2023/10/26 05:55:11;;;;;;;8.63;4.45;;;24.00;99.90;;;;;;5052035;28;20045;-52
2023/10/26 05:57:37;;;;;;;11.98;4.38;;;24.10;99.90;;;;;;5052251;28;20542;-53
2023/10/26 06:00:06;;;;;;;11.25;3.53;;;24.00;99.90;;;;;;5052172;28;20437;-53
2023/10/26 06:02:32;;;;;;;9.65;3.70;;;24.00;99.90;;;;;;5050498;28;20056;-53
2023/10/26 06:04:58;;;;;;;8.18;3.85;;;24.10;99.90;;;;;;5051947;28;20033;-53
2023/10/26 06:07:24;;;;;;;5.70;3.42;;;24.00;99.90;;;;;;5052065;28;20441;-53
2023/10/26 06:09:50;;;;;;;8.07;3.78;;;24.00;99.90;;;;;;5052037;28;20430;-53
2023/10/26 06:12:17;;;;;;;7.80;3.47;;;24.00;99.90;;;;;;5051978;28;20028;-52
2023/10/26 06:14:43;;;;;;;7.07;3.40;;;24.00;99.90;;;;;;5050398;28;20357;-53
2023/10/26 06:17:10;;;;;;;12.18;4.30;;;24.00;99.90;;;;;;5051881;28;20419;-53
2023/10/26 06:19:35;;;;;;;9.75;3.55;;;24.00;99.90;;;;;;5052060;28;20175;-53
2023/10/26 06:22:02;;;;;;;6.55;3.55;;;24.00;99.90;;;;;;5051760;28;20113;-53
2023/10/26 06:24:28;;;;;;;7.57;3.75;;;24.00;99.90;;;;;;5051888;28;20090;-52
2023/10/26 06:26:54;;;;;;;6.10;3.08;;;24.00;99.90;;;;;;5050108;28;20773;-53
2023/10/26 06:29:19;;;;;;;8.32;3.67;;;24.00;99.90;;;;;;5051755;28;20370;-53
2023/10/26 06:31:45;;;;;;;7.38;4.00;;;24.00;99.90;;;;;;5050514;28;20033;-53
2023/10/26 06:34:11;;;;;;;10.05;4.07;;;24.00;99.90;;;;;;5055430;28;20037;-54
2023/10/26 06:36:37;;;;;;;6.10;3.55;;;24.00;99.90;;;;;;5055584;28;20036;-53
2023/10/26 06:39:03;;;;;;;8.95;3.70;;;24.00;99.90;;;;;;5055518;28;20031;-53
2023/10/26 06:41:29;;;;;;;7.07;3.20;;;24.00;99.90;;;;;;5055424;28;20025;-53
2023/10/26 06:43:55;;;;;;;8.02;3.42;;;24.00;99.90;;;;;;5055260;28;20075;-53
2023/10/26 06:46:21;;;;;;;5.85;3.22;;;23.90;99.90;;;;;;5055245;28;20496;-53
2023/10/26 06:48:48;;;;;;;9.60;3.88;;;23.90;99.90;;;;;;5055243;28;20037;-53
2023/10/26 06:51:14;;;;;;;10.15;4.35;;;24.00;99.90;;;;;;5055269;28;20024;-53
2023/10/26 06:53:40;;;;;;;9.13;3.63;;;24.00;99.90;;;;;;5055219;28;20445;-53
2023/10/26 06:56:12;;;;;;;9.07;3.63;;;24.00;99.90;;;;;;5054957;28;20052;-53
2023/10/26 06:58:39;;;;;;;6.18;3.83;;;24.00;99.90;;;;;;5055148;28;20074;-53
2023/10/26 07:01:09;;;;;;;9.40;3.33;;;23.90;99.90;;;;;;5054756;28;20069;-53
2023/10/26 07:03:35;;;;;;;7.82;3.63;;;24.00;99.90;;;;;;5054904;28;20056;-53
2023/10/26 07:06:04;;;;;;;6.80;3.45;;;24.00;99.90;;;;;;5054864;28;20078;-52
2023/10/26 07:08:33;;;;;;;8.98;3.92;;;24.00;99.90;;;;;;5054685;28;20159;-53
2023/10/26 07:11:04;;;;;;;6.43;3.67;;;24.00;99.90;;;;;;5053551;28;20024;-53
2023/10/26 07:13:30;;;;;;;5.03;3.25;;;24.00;99.90;;;;;;5054757;28;20021;-53
2023/10/26 07:15:59;;;;;;;6.28;3.35;;;24.00;99.90;;;;;;5054621;28;20045;-53
2023/10/26 07:18:28;;;;;;;6.47;3.25;;;24.00;99.90;;;;;;5054798;28;20033;-51
2023/10/26 07:20:54;;;;;;;6.93;3.83;;;24.00;99.90;;;;;;5054542;28;20029;-52
2023/10/26 07:23:20;;;;;;;7.35;3.55;;;24.10;99.90;;;;;;5054429;28;20036;-52
2023/10/26 07:25:46;;;;;;;6.47;3.20;;;24.00;99.90;;;;;;5054411;28;20369;-52
2023/10/26 07:28:12;;;;;;;6.18;3.10;;;24.00;99.90;;;;;;5054603;28;20025;-52
2023/10/26 07:30:44;;;;;;;7.63;3.53;;;24.10;99.90;;;;;;5054670;28;20078;-52
2023/10/26 07:33:10;;;;;;;7.43;3.35;;;24.10;99.90;;;;;;5054452;28;20017;-52
2023/10/26 07:35:42;;;;;;;7.22;3.42;;;24.10;99.90;;;;;;5054150;28;20040;-52
2023/10/26 07:38:08;;;;;;;6.20;3.22;;;24.20;99.90;;;;;;5054302;28;20028;-53
2023/10/26 07:40:36;;;;;;;7.85;3.42;;;24.20;99.90;;;;;;5054331;28;20025;-53
2023/10/26 07:43:02;;;;;;;7.15;3.45;;;24.20;99.90;;;;;;5053834;28;20086;-53
2023/10/26 07:45:28;;;;;;;7.97;4.50;;;24.20;99.90;;;;;;5054107;28;20028;-52
2023/10/26 07:47:56;;;;;;;9.35;3.40;;;24.20;99.90;;;;;;5053972;28;20049;-52
2023/10/26 07:50:22;;;;;;;6.22;2.97;;;24.30;99.90;;;;;;5053911;28;20017;-52
2023/10/26 07:52:49;;;;;;;6.97;3.50;;;24.30;99.90;;;;;;5054005;28;20023;-52
2023/10/26 07:55:15;;;;;;;8.38;3.50;;;24.30;99.90;;;;;;5052538;28;20064;-52
2023/10/26 07:57:43;;;;;;;6.55;3.30;;;24.30;99.90;;;;;;5054141;28;20437;-52
2023/10/26 08:00:11;;;;;;;9.52;3.45;;;24.30;99.90;;;;;;5052614;28;20108;-52
2023/10/26 08:02:37;;;;;;;7.80;4.07;;;24.40;99.90;;;;;;5053475;28;20044;-52
2023/10/26 08:05:03;;;;;;;7.20;3.45;;;24.40;99.90;;;;;;5053632;28;20029;-51
2023/10/26 08:07:29;;;;;;;7.03;3.42;;;24.40;99.90;;;;;;5053581;28;20489;-52
2023/10/26 08:09:56;;;;;;;8.60;3.60;;;24.40;99.90;;;;;;5053592;28;20103;-52
2023/10/26 08:12:23;;;;;;;7.45;3.20;;;24.40;99.90;;;;;;5053735;28;20473;-52
2023/10/26 08:14:51;;;;;;;7.78;3.38;;;24.50;99.90;;;;;;5053488;28;20086;-52
2023/10/26 08:17:17;;;;;;;7.85;3.92;;;24.50;99.90;;;;;;5053480;28;20025;-53
2023/10/26 08:19:43;;;;;;;8.40;4.25;;;24.50;99.90;;;;;;5053729;28;20017;-52
2023/10/26 08:22:10;;;;;;;6.75;3.15;;;24.50;99.90;;;;;;5053630;28;20029;-52
2023/10/26 08:24:37;;;;;;;9.48;3.65;;;24.50;99.90;;;;;;5053357;28;20489;-52
2023/10/26 08:27:03;;;;;;;7.28;3.10;;;24.50;99.90;;;;;;5053240;28;20032;-52
2023/10/26 08:29:29;;;;;;;6.22;3.10;;;24.50;99.90;;;;;;5053324;28;20025;-52
2023/10/26 08:31:56;;;;;;;7.28;3.17;;;24.50;99.90;;;;;;5053203;28;20096;-52
2023/10/26 08:34:21;;;;;;;7.57;3.03;;;24.50;99.90;;;;;;5053208;28;20382;-52
2023/10/26 08:36:47;;;;;;;7.10;3.53;;;24.60;99.90;;;;;;5053120;28;20116;-52
2023/10/26 08:39:13;;;;;;;7.43;3.58;;;24.60;99.90;;;;;;5053323;28;20028;-52
2023/10/26 08:41:45;;;;;;;5.93;3.60;;;24.60;99.90;;;;;;5052913;28;20032;-52
2023/10/26 08:44:11;;;;;;;7.72;3.45;;;24.60;99.90;;;;;;5053187;28;20017;-52
2023/10/26 08:46:38;;;;;;;5.70;3.55;;;24.60;99.90;;;;;;5051767;28;20105;-52
2023/10/26 08:49:06;;;;;;;11.63;3.73;;;24.60;99.90;;;;;;5053053;28;20025;-52
2023/10/26 08:51:32;;;;;;;5.72;3.10;;;24.60;99.90;;;;;;5051697;28;20028;-52
2023/10/26 08:53:58;;;;;;;6.68;3.58;;;24.60;99.90;;;;;;5052732;28;20025;-52
2023/10/26 08:56:24;;;;;;;8.02;4.18;;;24.70;99.90;;;;;;5052186;28;20392;-52
2023/10/26 08:58:56;;;;;;;6.80;3.40;;;24.70;99.90;;;;;;5052740;28;20031;-52
2023/10/26 09:01:21;;;;;;;8.55;3.50;;;24.70;99.90;;;;;;5052475;28;20048;-51
2023/10/26 09:03:47;;;;;;;6.32;3.20;;;24.70;99.90;;;;;;5052742;28;20047;-53
2023/10/26 09:06:13;;;;;;;7.55;4.03;;;24.70;99.90;;;;;;5052732;28;20032;-51
2023/10/26 09:08:39;;;;;;;7.18;2.85;;;24.70;99.90;;;;;;5052335;28;20053;-53
2023/10/26 09:11:24;;;;;;;5.93;3.50;;;24.70;99.90;;;;;;5052365;28;20017;-53
2023/10/26 09:13:52;;;;;;;5.10;2.78;;;24.80;99.90;;;;;;5052505;28;20039;-52
2023/10/26 09:16:18;;;;;;;6.22;2.97;;;24.80;99.90;;;;;;5052716;28;20029;-52
2023/10/26 09:18:50;;;;;;;6.72;3.13;;;24.80;99.90;;;;;;5052766;28;20025;-52
2023/10/26 09:21:17;;;;;;;6.00;3.30;;;24.80;99.90;;;;;;5052543;28;20424;-53
2023/10/26 09:23:45;;;;;;;7.80;3.27;;;24.80;99.90;;;;;;5052217;28;20461;-52
2023/10/26 09:26:11;;;;;;;5.70;3.42;;;24.90;99.90;;;;;;5052360;28;20032;-52
2023/10/26 09:28:51;;;;;;;8.40;3.50;;;24.90;99.90;;;;;;5052245;28;20326;-52
2023/10/26 09:31:17;;;;;;;7.13;3.40;;;24.90;99.90;;;;;;5052251;28;20077;-52
2023/10/26 09:33:44;;;;;;;8.77;3.65;;;24.90;99.90;;;;;;5052178;28;20021;-52
2023/10/26 09:36:15;;;;;;;7.50;3.17;;;24.90;99.90;;;;;;5052103;28;20037;-52
2023/10/26 09:38:41;;;;;;;10.90;3.17;;;24.90;99.90;;;;;;5051944;28;20059;-53
2023/10/26 09:41:11;;;;;;;5.83;3.30;;;25.00;99.90;;;;;;5052131;28;20049;-52
2023/10/26 09:43:37;;;;;;;8.23;3.65;;;25.00;99.90;;;;;;5051894;28;20477;-52
2023/10/26 09:46:05;;;;;;;5.57;3.10;;;25.00;99.90;;;;;;5052020;28;20055;-52
2023/10/26 09:48:31;;;;;;;7.28;3.10;;;25.10;99.90;;;;;;5052010;28;20031;-52
2023/10/26 09:51:00;;;;;;;8.75;3.50;;;25.10;99.90;;;;;;5051712;28;20021;-52
2023/10/26 09:53:38;;;;;;;7.72;3.80;;;25.10;99.90;;;;;;5051975;28;20029;-52
2023/10/26 09:56:05;;;;;;;7.00;3.50;;;25.20;99.90;;;;;;5051927;28;20068;-52
2023/10/26 09:58:39;;;;;;;16.48;4.18;;;25.30;99.90;;;;;;5051830;28;20086;-52
2023/10/26 10:01:33;;;;;;;10.30;3.40;;;25.30;99.90;;;;;;5051806;28;20485;-52
2023/10/26 10:04:04;;;;;;;8.38;3.80;;;25.40;99.90;;;;;;5051970;28;20032;-52
2023/10/26 10:06:53;;;;;;;9.20;3.88;;;25.40;99.90;;;;;;5053398;28;20024;-52
2023/10/26 10:09:26;;;;;;;9.15;3.88;;;25.50;99.90;;;;;;5056176;28;20024;-52
2023/10/26 10:12:13;;;;;;;7.25;3.47;;;25.50;99.90;;;;;;5055898;28;20025;-52
2023/10/26 10:14:48;;;;;;;7.97;3.97;;;25.50;99.90;;;;;;5056099;28;20453;-52
2023/10/26 10:17:15;;;;;;;7.97;4.30;;;25.60;99.90;;;;;;5055843;28;20043;-52
2023/10/26 10:19:45;;;;;;;7.65;5.30;;;25.60;99.90;;;;;;5055785;28;20078;-52
2023/10/26 10:22:38;;;;;;;9.70;5.60;;;25.60;99.90;;;;;;5055672;28;20031;-53
2023/10/26 10:25:05;;;;;;;9.48;5.95;;;25.70;99.90;;;;;;5055690;28;20017;-53
2023/10/26 10:27:32;;;;;;;11.50;7.60;;;25.70;99.90;;;;;;5055627;28;20074;-52
2023/10/26 10:30:02;;;;;;;14.05;7.80;;;25.70;99.90;;;;;;5055652;28;20029;-53
2023/10/26 10:32:43;;;;;;;11.55;7.85;;;25.80;99.90;;;;;;5055446;28;20021;-52
2023/10/26 10:35:21;;;;;;;14.80;8.82;;;25.80;99.90;;;;;;5055405;28;20079;-53
2023/10/26 10:38:24;;;;;;;15.75;10.02;;;25.80;99.90;;;;;;5055491;28;20061;-53
2023/10/26 10:40:58;;;;;;;17.90;12.00;;;25.90;99.90;;;;;;5055649;28;20029;-53
2023/10/26 10:43:34;;;;;;;19.05;12.30;;;25.90;99.90;;;;;;5055211;28;20049;-53
2023/10/26 10:46:13;;;;;;;19.42;13.30;;;25.90;99.90;;;;;;5055195;28;20048;-52
2023/10/26 10:48:59;;;;;;;22.92;14.63;;;25.90;99.90;;;;;;5055264;28;20021;-53
2023/10/26 10:51:37;;;;;;;22.48;15.80;;;25.90;99.90;;;;;;5055116;28;20409;-51
2023/10/26 10:54:07;;;;;;;23.10;15.75;;;25.90;99.90;;;;;;5055233;28;20040;-52
2023/10/26 10:56:37;;;;;;;24.95;15.90;;;25.90;99.90;;;;;;5054917;28;20058;-52
2023/10/26 10:59:27;;;;;;;25.83;17.70;;;26.00;99.90;;;;;;5055116;28;20020;-52
2023/10/26 11:02:12;;;;;;;22.75;16.90;;;26.00;99.90;;;;;;5054900;28;20037;-52
2023/10/26 11:04:55;;;;;;;25.52;17.23;;;26.00;99.90;;;;;;5054880;28;20104;-52
2023/10/26 11:07:25;;;;;;;22.63;15.90;;;26.10;99.90;;;;;;5055134;28;20021;-52
2023/10/26 11:09:56;;;;;;;26.67;16.67;;;26.10;99.90;;;;;;5055152;28;20028;-52
2023/10/26 11:12:22;;;;;;;25.73;17.02;;;26.10;99.90;;;;;;5054750;28;20359;-52
2023/10/26 11:14:49;;;;;;;27.33;17.10;;;26.10;99.90;;;;;;5054641;28;20482;-52
2023/10/26 11:17:20;;;;;;;25.30;16.60;;;26.10;99.90;;;;;;5053251;28;20033;-52
2023/10/26 11:19:47;;;;;;;25.35;16.33;;;26.20;99.90;;;;;;5054259;28;20040;-52
2023/10/26 11:22:17;;;;;;;29.13;16.80;;;26.20;99.90;;;;;;5054658;28;20524;-52
2023/10/26 11:24:43;;;;;;;23.92;16.40;;;26.20;99.90;;;;;;5054399;28;20481;-52
2023/10/26 11:27:14;;;;;;;26.13;16.02;;;26.30;99.90;;;;;;5054487;28;20036;-52
2023/10/26 11:29:40;;;;;;;23.77;16.42;;;26.30;99.90;;;;;;5054435;28;20025;-52
2023/10/26 11:32:26;;;;;;;24.37;16.53;;;26.30;99.90;;;;;;5054475;28;20507;-52
2023/10/26 11:35:16;;;;;;;24.55;16.70;;;26.40;99.90;;;;;;5054481;28;20174;-52
2023/10/26 11:37:43;;;;;;;19.52;14.48;;;26.40;99.90;;;;;;5054347;28;20053;-52
2023/10/26 11:40:10;;;;;;;;;;;26.40;99.90;;;;;;5054580;28;20108;-52
2023/10/26 11:42:53;;;;;;;23.33;14.23;;;26.40;99.90;;;;;;5054340;28;19912;-51
2023/10/26 11:45:25;;;;;;;22.25;13.70;;;26.40;99.90;;;;;;5054002;28;20036;-51
2023/10/26 11:47:55;;;;;;;21.20;14.15;;;26.50;99.90;;;;;;5052804;28;20028;-52
2023/10/26 11:50:27;;;;;;;23.42;13.02;;;26.50;99.90;;;;;;5053451;28;20029;-51
2023/10/26 11:52:57;;;;;;;21.02;12.70;;;26.50;99.90;;;;;;5053227;28;20021;-52
2023/10/26 11:55:24;;;;;;;21.77;13.05;;;26.50;99.90;;;;;;5053490;28;20114;-52
2023/10/26 11:57:51;;;;;;;17.92;11.15;;;26.50;99.90;;;;;;5053367;28;20108;-52
2023/10/26 12:00:18;;;;;;;18.65;11.27;;;26.50;99.90;;;;;;5053155;28;20104;-52
2023/10/26 12:02:44;;;;;;;19.40;10.85;;;26.60;99.90;;;;;;5053472;28;20087;-51
2023/10/26 12:05:17;;;;;;;13.52;7.90;;;26.60;99.90;;;;;;5052889;28;20056;-51
2023/10/26 12:07:47;;;;;;;17.48;4.80;;;26.60;99.90;;;;;;5052798;28;20054;-52
2023/10/26 12:10:15;;;;;;;14.77;4.78;;;26.70;99.90;;;;;;5053547;28;20021;-51
2023/10/26 12:12:41;;;;;;;14.63;4.78;;;26.70;99.90;;;;;;5053407;28;20027;-51
2023/10/26 12:15:08;;;;;;;16.48;3.63;;;26.70;99.90;;;;;;5050956;28;20623;-51
2023/10/26 12:17:35;;;;;;;13.73;4.57;;;26.70;99.90;;;;;;5053074;28;20061;-51
2023/10/26 12:20:01;;;;;;;18.83;5.22;;;26.70;99.90;;;;;;5053474;28;20033;-52
2023/10/26 12:22:27;;;;;;;16.30;3.72;;;26.80;99.90;;;;;;5053429;28;20496;-51
2023/10/26 12:24:53;;;;;;;24.55;10.25;;;26.80;99.90;;;;;;5053338;28;20057;-53
2023/10/26 12:27:19;;;;;;;21.45;11.85;;;26.80;99.90;;;;;;5053036;28;20035;-52
2023/10/26 12:29:47;;;;;;;18.55;5.53;;;26.80;99.90;;;;;;5052254;28;20020;-52
2023/10/26 12:32:13;;;;;;;19.33;5.30;;;26.80;99.90;;;;;;5053265;28;20513;-52
2023/10/26 12:34:39;;;;;;;15.00;4.88;;;26.90;99.90;;;;;;5041846;28;20040;-51
2023/10/26 12:37:05;;;;;;;15.18;4.38;;;26.90;99.90;;;;;;5040721;28;20041;-51
2023/10/26 12:39:32;;;;;;;13.30;4.07;;;26.90;99.90;;;;;;5038544;28;20027;-51
2023/10/26 12:41:58;;;;;;;12.80;4.63;;;26.90;99.90;;;;;;5049767;28;20066;-51
2023/10/26 12:44:26;;;;;;;15.85;4.72;;;26.90;99.90;;;;;;5047540;28;20043;-51
2023/10/26 12:46:53;;;;;;;11.63;4.68;;;26.90;99.90;;;;;;5044748;28;20030;-50